Bryantsville, Kentucky
Current Conditions -  °F | °C
As of 6:15 AM on Monday 22 Dec 2014 (Local Time) from KDVK Reporting Station
Overcast Overcast  
Wind Chill: 34°   Ceiling: 3700
Heat Index: 34°   Visibility: 10mi
Dew Point: 30°   Wind: 0mph
Humidity: 87%   Direction: NA
Pressure: 30.02"   Gusts: NA
Location:  37.71°N, 84.65°W
Report Text: KDVK 221115Z AUTO 00000KT 10SM SCT024 OVC037 01/M01 A3002 RMK AO2
Loading
Personal Weather Stations






























Interactive Weather Map New forecast layout! Learn more

10-Day Weather Forecast

Advertisements
Track Severe Weather on mobile